createdAt,value
2018-07-22T00:00:35.610Z,17.5
2018-07-22T00:01:35.591Z,17.67
2018-07-22T00:02:35.453Z,17.78
2018-07-22T00:03:35.630Z,17.68
2018-07-22T00:04:35.726Z,17.74
2018-07-22T00:05:35.539Z,17.76
2018-07-22T00:06:35.595Z,17.73
2018-07-22T00:07:35.543Z,17.74
2018-07-22T00:08:35.612Z,17.77
2018-07-22T00:09:35.569Z,17.68
2018-07-22T00:10:35.539Z,17.65
2018-07-22T00:11:35.466Z,17.65
2018-07-22T00:12:35.488Z,17.75
2018-07-22T00:13:35.595Z,17.66
2018-07-22T00:14:35.490Z,17.64
2018-07-22T00:15:35.517Z,17.68
2018-07-22T00:16:35.479Z,17.72
2018-07-22T00:17:35.509Z,17.73
2018-07-22T00:18:35.521Z,17.77
2018-07-22T00:19:35.664Z,17.77
2018-07-22T00:20:35.490Z,17.76
2018-07-22T00:21:35.544Z,17.72
2018-07-22T00:22:35.490Z,17.74
2018-07-22T00:23:35.490Z,17.72
2018-07-22T00:24:35.722Z,17.72
2018-07-22T00:25:35.577Z,17.75
2018-07-22T00:26:35.556Z,17.69
2018-07-22T00:27:35.570Z,17.68
2018-07-22T00:28:35.517Z,17.66
2018-07-22T00:29:36.209Z,17.62
2018-07-22T00:30:35.537Z,17.62
2018-07-22T00:31:35.560Z,17.7
2018-07-22T00:32:35.511Z,17.66
2018-07-22T00:33:35.520Z,17.6
2018-07-22T00:34:35.544Z,17.55
2018-07-22T00:35:35.572Z,17.48
2018-07-22T00:36:35.531Z,17.51
2018-07-22T00:37:35.570Z,17.62
2018-07-22T00:38:35.524Z,17.54
2018-07-22T00:39:35.556Z,17.55
2018-07-22T00:40:35.667Z,17.55
2018-07-22T00:41:35.517Z,17.64
2018-07-22T00:42:35.606Z,17.64
2018-07-22T00:43:35.532Z,17.54
2018-07-22T00:44:35.538Z,17.58
2018-07-22T00:45:35.551Z,17.51
2018-07-22T00:46:35.556Z,17.54
2018-07-22T00:47:35.508Z,17.64
2018-07-22T00:48:35.508Z,17.59
2018-07-22T00:49:35.516Z,17.62
2018-07-22T00:50:35.492Z,17.57
2018-07-22T00:51:35.534Z,17.57
2018-07-22T00:52:35.539Z,17.66
2018-07-22T00:53:35.551Z,17.57
2018-07-22T00:54:35.499Z,17.65
2018-07-22T00:55:35.514Z,17.56
2018-07-22T00:56:35.551Z,17.51
2018-07-22T00:57:35.515Z,17.57
2018-07-22T00:58:35.513Z,17.55
2018-07-22T00:59:35.533Z,17.57
2018-07-22T01:00:35.561Z,17.55
2018-07-22T01:01:35.575Z,17.51
2018-07-22T01:02:35.530Z,17.55
2018-07-22T01:03:35.522Z,17.52
2018-07-22T01:04:35.540Z,17.55
2018-07-22T01:05:35.529Z,17.53
2018-07-22T01:06:35.553Z,17.43
2018-07-22T01:07:35.552Z,17.47
2018-07-22T01:08:35.508Z,17.43
2018-07-22T01:09:35.592Z,17.38
2018-07-22T01:10:35.571Z,17.48
2018-07-22T01:11:35.543Z,17.48
2018-07-22T01:12:35.725Z,17.62
2018-07-22T01:13:35.576Z,17.64
2018-07-22T01:14:35.562Z,17.57
2018-07-22T01:15:35.659Z,17.59
2018-07-22T01:16:35.567Z,17.53
2018-07-22T01:17:35.544Z,17.52
2018-07-22T01:18:35.536Z,17.54
2018-07-22T01:19:35.555Z,17.48
2018-07-22T01:20:35.753Z,17.57
2018-07-22T01:21:35.533Z,17.64
2018-07-22T01:22:35.540Z,17.6
2018-07-22T01:23:35.563Z,17.6
2018-07-22T01:24:35.606Z,17.5
2018-07-22T01:25:35.572Z,17.51
2018-07-22T01:26:35.540Z,17.42
2018-07-22T01:27:35.742Z,17.55
2018-07-22T01:28:35.580Z,17.52
2018-07-22T01:29:35.816Z,17.62
2018-07-22T01:30:35.634Z,17.6
2018-07-22T01:31:35.605Z,17.63
2018-07-22T01:32:35.556Z,17.62
2018-07-22T01:33:35.544Z,17.51
2018-07-22T01:34:35.546Z,17.53
2018-07-22T01:35:35.565Z,17.5
2018-07-22T01:36:35.560Z,17.6
2018-07-22T01:37:35.803Z,17.62
2018-07-22T01:38:35.525Z,17.6
2018-07-22T01:39:35.647Z,17.6
2018-07-22T01:40:35.601Z,17.54
2018-07-22T01:41:35.596Z,17.55
2018-07-22T01:42:35.552Z,17.57
2018-07-22T01:43:35.730Z,17.49
2018-07-22T01:44:35.544Z,17.53
2018-07-22T01:45:35.576Z,17.44
2018-07-22T01:46:35.556Z,17.44
2018-07-22T01:47:36.114Z,17.48
2018-07-22T01:48:35.540Z,17.5
2018-07-22T01:49:35.680Z,17.46
2018-07-22T01:50:35.577Z,17.49
2018-07-22T01:51:36.101Z,17.51
2018-07-22T01:52:35.622Z,17.44
2018-07-22T01:53:35.551Z,17.45
2018-07-22T01:54:35.582Z,17.46
2018-07-22T01:55:35.618Z,17.43
2018-07-22T01:56:35.594Z,17.65
2018-07-22T01:57:35.548Z,17.62
2018-07-22T01:58:35.574Z,17.73
2018-07-22T01:59:35.570Z,17.73
2018-07-22T02:00:35.548Z,17.75
2018-07-22T02:01:36.003Z,17.74
2018-07-22T02:02:35.564Z,17.7
2018-07-22T02:03:35.591Z,17.7
2018-07-22T02:04:35.534Z,17.72
2018-07-22T02:05:35.576Z,17.7
2018-07-22T02:06:35.572Z,17.71
2018-07-22T02:07:35.565Z,17.71
2018-07-22T02:08:35.581Z,17.66
2018-07-22T02:09:35.554Z,17.68
2018-07-22T02:10:35.585Z,17.69
2018-07-22T02:11:35.591Z,17.72
2018-07-22T02:12:35.626Z,17.69
2018-07-22T02:13:35.584Z,17.7
2018-07-22T02:14:35.591Z,17.7
2018-07-22T02:15:35.568Z,17.73
2018-07-22T02:16:35.584Z,17.74
2018-07-22T02:17:35.592Z,17.73
2018-07-22T02:18:35.568Z,17.71
2018-07-22T02:19:35.575Z,17.73
2018-07-22T02:20:35.655Z,17.76
2018-07-22T02:21:35.684Z,17.72
2018-07-22T02:22:35.599Z,17.69
2018-07-22T02:23:35.648Z,17.67
2018-07-22T02:24:35.560Z,17.53
2018-07-22T02:25:35.608Z,17.48
2018-07-22T02:26:35.600Z,17.48
2018-07-22T02:27:35.654Z,17.46
2018-07-22T02:28:35.750Z,17.47
2018-07-22T02:29:35.614Z,17.4
2018-07-22T02:30:35.663Z,17.4
2018-07-22T02:31:35.592Z,17.37
2018-07-22T02:32:35.641Z,17.4
2018-07-22T02:33:35.677Z,17.33
2018-07-22T02:34:35.610Z,17.33
2018-07-22T02:35:35.576Z,17.32
2018-07-22T02:36:35.660Z,17.29
2018-07-22T02:37:35.595Z,17.29
2018-07-22T02:38:35.609Z,17.26
2018-07-22T02:39:35.715Z,17.24
2018-07-22T02:40:35.587Z,17.27
2018-07-22T02:41:35.583Z,17.21
2018-07-22T02:42:35.606Z,17.22
2018-07-22T02:43:35.781Z,17.17
2018-07-22T02:44:35.648Z,17.22
2018-07-22T02:45:35.669Z,17.24
2018-07-22T02:46:35.701Z,17.31
2018-07-22T02:47:35.600Z,17.28
2018-07-22T02:48:35.597Z,17.29
2018-07-22T02:49:35.686Z,17.33
2018-07-22T02:50:35.661Z,17.47
2018-07-22T02:51:36.095Z,17.53
2018-07-22T02:52:35.698Z,17.41
2018-07-22T02:53:35.752Z,17.45
2018-07-22T02:54:35.927Z,17.4
2018-07-22T02:55:35.726Z,17.43
2018-07-22T02:56:35.617Z,17.42
2018-07-22T02:57:35.657Z,17.51
2018-07-22T02:58:35.705Z,17.42
2018-07-22T02:59:35.738Z,17.4
2018-07-22T03:00:35.592Z,17.45
2018-07-22T03:01:35.647Z,17.38
2018-07-22T03:02:35.586Z,17.45
2018-07-22T03:03:35.605Z,17.59
2018-07-22T03:04:35.610Z,17.57
2018-07-22T03:05:35.628Z,17.54
2018-07-22T03:06:35.736Z,17.66
2018-07-22T03:07:35.643Z,17.73
2018-07-22T03:08:35.649Z,17.53
2018-07-22T03:09:35.636Z,17.51
2018-07-22T03:10:35.626Z,17.49
2018-07-22T03:11:35.616Z,17.48
2018-07-22T03:12:35.708Z,17.49
2018-07-22T03:13:35.654Z,17.49
2018-07-22T03:14:35.798Z,17.48
2018-07-22T03:15:35.676Z,17.64
2018-07-22T03:16:35.631Z,17.59
2018-07-22T03:17:35.629Z,17.67
2018-07-22T03:18:35.638Z,17.76
2018-07-22T03:19:35.717Z,17.75
2018-07-22T03:20:35.604Z,17.64
2018-07-22T03:21:35.669Z,17.54
2018-07-22T03:22:35.750Z,17.59
2018-07-22T03:23:35.690Z,17.56
2018-07-22T03:24:35.657Z,17.52
2018-07-22T03:25:35.661Z,17.57
2018-07-22T03:26:35.712Z,17.62
2018-07-22T03:27:35.655Z,17.53
2018-07-22T03:28:35.686Z,17.49
2018-07-22T03:29:35.691Z,17.51
2018-07-22T03:30:35.665Z,17.51
2018-07-22T03:31:35.768Z,17.59
2018-07-22T03:32:35.666Z,17.59
2018-07-22T03:33:35.721Z,17.56
2018-07-22T03:34:35.663Z,17.53
2018-07-22T03:35:35.841Z,17.58
2018-07-22T03:36:35.668Z,17.49
2018-07-22T03:37:35.687Z,17.55
2018-07-22T03:38:35.737Z,17.54
2018-07-22T03:39:35.718Z,17.63
2018-07-22T03:40:35.640Z,17.64
2018-07-22T03:41:35.644Z,17.72
2018-07-22T03:42:35.649Z,17.7
2018-07-22T03:43:35.682Z,17.73
2018-07-22T03:44:35.652Z,17.8
2018-07-22T03:45:35.752Z,17.75
2018-07-22T03:46:35.689Z,17.68
2018-07-22T03:47:35.810Z,17.64
2018-07-22T03:48:35.668Z,17.71
2018-07-22T03:49:35.775Z,17.69
2018-07-22T03:50:35.702Z,17.57
2018-07-22T03:51:35.722Z,17.66
2018-07-22T03:52:35.647Z,17.6
2018-07-22T03:53:35.657Z,17.78
2018-07-22T03:54:35.759Z,17.82
2018-07-22T03:55:35.647Z,17.81
2018-07-22T03:56:35.805Z,17.72
2018-07-22T03:57:35.746Z,17.65
2018-07-22T03:58:35.658Z,17.6
2018-07-22T03:59:35.629Z,17.57
2018-07-22T04:00:35.667Z,17.55
2018-07-22T04:01:35.676Z,17.58
2018-07-22T04:02:35.695Z,17.56
2018-07-22T04:03:35.721Z,17.59
2018-07-22T04:04:35.656Z,17.55
2018-07-22T04:05:35.630Z,17.69
2018-07-22T04:06:35.828Z,17.71
2018-07-22T04:07:35.819Z,17.6
2018-07-22T04:08:35.705Z,17.54
2018-07-22T04:09:35.712Z,17.53
2018-07-22T04:10:35.861Z,17.48
2018-07-22T04:11:35.674Z,17.5
2018-07-22T04:12:35.817Z,17.45
2018-07-22T04:13:35.673Z,17.47
2018-07-22T04:14:35.693Z,17.45
2018-07-22T04:15:35.851Z,17.53
2018-07-22T04:16:35.698Z,17.52
2018-07-22T04:17:35.656Z,17.54
2018-07-22T04:18:35.631Z,17.52
2018-07-22T04:19:35.716Z,17.54
2018-07-22T04:20:35.651Z,17.38
2018-07-22T04:21:35.723Z,17.54
2018-07-22T04:22:35.868Z,17.56
2018-07-22T04:23:35.673Z,17.54
2018-07-22T04:24:35.662Z,17.49
2018-07-22T04:25:35.780Z,17.48
2018-07-22T04:26:35.787Z,17.51
2018-07-22T04:27:35.821Z,17.47
2018-07-22T04:28:35.752Z,17.45
2018-07-22T04:29:35.780Z,17.5
2018-07-22T04:30:35.645Z,17.43
2018-07-22T04:31:35.787Z,17.48
2018-07-22T04:32:35.701Z,17.59
2018-07-22T04:33:35.657Z,17.6
2018-07-22T04:34:35.682Z,17.56
2018-07-22T04:35:35.706Z,17.51
2018-07-22T04:36:35.692Z,17.48
2018-07-22T04:37:35.695Z,17.57
2018-07-22T04:38:35.750Z,17.49
2018-07-22T04:39:35.757Z,17.54
2018-07-22T04:40:36.390Z,17.58
2018-07-22T04:41:35.696Z,17.44
2018-07-22T04:42:35.673Z,17.63
2018-07-22T04:43:35.658Z,17.57
2018-07-22T04:44:35.655Z,17.52
2018-07-22T04:45:35.696Z,17.55
2018-07-22T04:46:35.664Z,17.55
2018-07-22T04:47:35.682Z,17.56
2018-07-22T04:48:35.700Z,17.65
2018-07-22T04:49:35.674Z,17.58
2018-07-22T04:50:35.721Z,17.61
2018-07-22T04:51:35.830Z,17.66
2018-07-22T04:52:35.653Z,17.66
2018-07-22T04:53:36.125Z,17.67
2018-07-22T04:54:35.727Z,17.63
2018-07-22T04:55:35.712Z,17.69
2018-07-22T04:56:35.669Z,17.65
2018-07-22T04:57:35.726Z,17.64
2018-07-22T04:58:35.708Z,17.56
2018-07-22T04:59:35.750Z,17.53
2018-07-22T05:00:35.686Z,17.52
2018-07-22T05:01:35.726Z,17.52
2018-07-22T05:02:35.716Z,17.53
2018-07-22T05:03:35.682Z,17.54
2018-07-22T05:04:35.680Z,17.53
2018-07-22T05:05:35.851Z,17.51
2018-07-22T05:06:35.711Z,17.53
2018-07-22T05:07:35.668Z,17.58
2018-07-22T05:08:35.869Z,17.61
2018-07-22T05:09:35.741Z,17.49
2018-07-22T05:10:35.737Z,17.48
2018-07-22T05:11:35.728Z,17.56
2018-07-22T05:12:35.723Z,17.55
2018-07-22T05:13:35.676Z,17.58
2018-07-22T05:14:35.696Z,17.67
2018-07-22T05:15:35.781Z,17.65
2018-07-22T05:16:35.686Z,17.58
2018-07-22T05:17:35.987Z,17.55
2018-07-22T05:18:35.866Z,17.58
2018-07-22T05:19:35.741Z,17.58
2018-07-22T05:20:35.803Z,17.58
2018-07-22T05:21:35.695Z,17.58
2018-07-22T05:22:36.268Z,17.54
2018-07-22T05:23:35.831Z,17.65
2018-07-22T05:24:35.722Z,17.64
2018-07-22T05:25:35.727Z,17.56
2018-07-22T05:26:35.802Z,17.59
2018-07-22T05:27:35.816Z,17.58
2018-07-22T05:28:35.839Z,17.59
2018-07-22T05:29:35.711Z,17.76
2018-07-22T05:30:35.902Z,17.7
2018-07-22T05:31:35.685Z,17.7
2018-07-22T05:32:35.732Z,17.66
2018-07-22T05:33:35.802Z,17.66
2018-07-22T05:34:35.674Z,17.72
2018-07-22T05:35:35.695Z,17.67
2018-07-22T05:36:35.766Z,17.65
2018-07-22T05:37:35.766Z,17.71
2018-07-22T05:38:35.705Z,17.66
2018-07-22T05:39:35.724Z,17.67
2018-07-22T05:40:35.742Z,17.67
2018-07-22T05:41:35.748Z,17.6
2018-07-22T05:42:35.713Z,17.6
2018-07-22T05:43:35.718Z,17.76
2018-07-22T05:44:35.756Z,17.82
2018-07-22T05:45:35.708Z,17.82
2018-07-22T05:46:35.717Z,17.82
2018-07-22T05:47:35.757Z,17.78
2018-07-22T05:48:35.724Z,17.73
2018-07-22T05:49:35.690Z,17.71
2018-07-22T05:50:35.696Z,17.73
2018-07-22T05:51:35.719Z,17.79
2018-07-22T05:52:35.713Z,17.83
2018-07-22T05:53:35.756Z,17.89
2018-07-22T05:54:35.722Z,17.82
2018-07-22T05:55:35.732Z,17.83
2018-07-22T05:56:35.861Z,17.76
2018-07-22T05:57:35.755Z,17.81
2018-07-22T05:58:35.765Z,17.84
2018-07-22T05:59:35.708Z,17.82
2018-07-22T06:00:35.724Z,17.85
2018-07-22T06:01:35.747Z,17.81
2018-07-22T06:02:35.749Z,17.89
2018-07-22T06:03:35.716Z,17.86
2018-07-22T06:04:35.714Z,17.85
2018-07-22T06:05:35.783Z,18.03
2018-07-22T06:06:35.810Z,18.01
2018-07-22T06:07:35.757Z,17.97
2018-07-22T06:08:35.945Z,17.95
2018-07-22T06:09:35.920Z,17.99
2018-07-22T06:10:35.723Z,17.95
2018-07-22T06:11:35.776Z,17.87
2018-07-22T06:12:35.722Z,17.88
2018-07-22T06:13:35.752Z,17.9
2018-07-22T06:14:35.761Z,17.86
2018-07-22T06:15:35.797Z,17.87
2018-07-22T06:16:35.864Z,17.91
2018-07-22T06:17:35.856Z,17.91
2018-07-22T06:18:35.786Z,17.95
2018-07-22T06:19:35.735Z,17.92
2018-07-22T06:20:35.735Z,17.92
2018-07-22T06:21:35.774Z,17.86
2018-07-22T06:22:35.891Z,17.96
2018-07-22T06:23:35.736Z,18
2018-07-22T06:24:35.733Z,17.94
2018-07-22T06:25:35.938Z,17.93
2018-07-22T06:26:35.747Z,17.99
2018-07-22T06:27:35.828Z,18.07
2018-07-22T06:28:35.804Z,17.96
2018-07-22T06:29:35.805Z,17.93
2018-07-22T06:30:35.918Z,17.8
2018-07-22T06:31:35.807Z,17.72
2018-07-22T06:32:36.173Z,17.77
2018-07-22T06:33:35.763Z,17.69
2018-07-22T06:34:35.903Z,17.69
2018-07-22T06:35:35.799Z,17.71
2018-07-22T06:36:35.724Z,17.65
2018-07-22T06:37:35.772Z,17.67
2018-07-22T06:38:35.890Z,17.67
2018-07-22T06:39:35.809Z,17.65
2018-07-22T06:40:35.896Z,17.48
2018-07-22T06:41:35.733Z,17.51
2018-07-22T06:42:35.760Z,17.56
2018-07-22T06:43:35.913Z,17.43
2018-07-22T06:44:35.896Z,17.47
2018-07-22T06:45:35.756Z,17.52
2018-07-22T06:46:36.169Z,17.56
2018-07-22T06:47:35.839Z,17.64
2018-07-22T06:48:35.790Z,17.6
2018-07-22T06:49:36.872Z,17.64
2018-07-22T06:50:35.793Z,17.69
2018-07-22T06:51:35.762Z,17.83
2018-07-22T06:52:35.759Z,17.77
2018-07-22T06:53:36.188Z,17.84
2018-07-22T06:54:35.763Z,17.74
2018-07-22T06:55:35.768Z,17.88
2018-07-22T06:56:35.759Z,17.76
2018-07-22T06:57:35.839Z,17.83
2018-07-22T06:58:35.762Z,17.72
2018-07-22T06:59:36.038Z,17.84
2018-07-22T07:00:35.795Z,17.62
2018-07-22T07:01:35.753Z,17.64
2018-07-22T07:02:35.760Z,17.69
2018-07-22T07:03:35.764Z,17.77
2018-07-22T07:04:35.765Z,17.72
2018-07-22T07:05:35.900Z,17.75
2018-07-22T07:06:35.771Z,17.73
2018-07-22T07:07:35.828Z,17.57
2018-07-22T07:08:36.267Z,17.7
2018-07-22T07:09:35.766Z,17.77
2018-07-22T07:10:35.805Z,17.66
2018-07-22T07:11:35.751Z,17.72
2018-07-22T07:12:35.790Z,17.83
2018-07-22T07:13:35.787Z,17.82
2018-07-22T07:14:35.775Z,17.89
2018-07-22T07:15:35.800Z,17.86
2018-07-22T07:16:35.779Z,17.85
2018-07-22T07:17:35.778Z,17.84
2018-07-22T07:18:35.857Z,17.79
2018-07-22T07:19:35.894Z,17.75
2018-07-22T07:20:35.796Z,17.69
2018-07-22T07:21:35.769Z,17.75
2018-07-22T07:22:35.803Z,17.77
2018-07-22T07:23:35.782Z,17.62
2018-07-22T07:24:35.832Z,17.42
2018-07-22T07:25:35.808Z,17.46
2018-07-22T07:26:36.065Z,17.42
2018-07-22T07:27:35.858Z,17.44
2018-07-22T07:28:35.805Z,17.43
2018-07-22T07:29:35.934Z,17.36
2018-07-22T07:30:35.883Z,17.32
2018-07-22T07:31:35.827Z,17.34
2018-07-22T07:32:35.936Z,17.41
2018-07-22T07:33:36.144Z,17.37
2018-07-22T07:34:36.042Z,17.4
2018-07-22T07:35:35.823Z,17.41
2018-07-22T07:36:35.784Z,17.46
2018-07-22T07:37:35.795Z,17.53
2018-07-22T07:38:35.819Z,17.38
2018-07-22T07:39:36.013Z,17.48
2018-07-22T07:40:35.784Z,17.55
2018-07-22T07:41:35.791Z,17.54
2018-07-22T07:42:35.819Z,17.56
2018-07-22T07:43:35.950Z,17.57
2018-07-22T07:44:35.892Z,17.56
2018-07-22T07:45:35.917Z,17.59
2018-07-22T07:46:35.783Z,17.54
2018-07-22T07:47:35.810Z,17.58
2018-07-22T07:48:35.828Z,17.49
2018-07-22T07:49:36.101Z,17.5
2018-07-22T07:50:35.776Z,17.52
2018-07-22T07:51:35.878Z,17.54
2018-07-22T07:52:35.830Z,17.57
2018-07-22T07:53:35.845Z,17.53
2018-07-22T07:54:35.796Z,17.5
2018-07-22T07:55:35.852Z,17.52
2018-07-22T07:56:36.001Z,17.55
2018-07-22T07:57:35.795Z,17.62
2018-07-22T07:58:35.807Z,17.63
2018-07-22T07:59:35.858Z,17.6
2018-07-22T08:00:35.810Z,17.7
2018-07-22T08:01:35.861Z,17.66
2018-07-22T08:02:35.929Z,17.41
2018-07-22T08:03:35.831Z,17.49
2018-07-22T08:04:35.828Z,17.5
2018-07-22T08:05:36.488Z,17.42
2018-07-22T08:06:35.873Z,17.37
2018-07-22T08:07:35.892Z,17.43
2018-07-22T08:08:35.808Z,17.45
2018-07-22T08:09:35.841Z,17.41
2018-07-22T08:10:35.815Z,17.48
2018-07-22T08:11:36.064Z,17.53
2018-07-22T08:12:36.008Z,17.57
2018-07-22T08:13:35.950Z,17.45
2018-07-22T08:14:36.033Z,17.44
2018-07-22T08:15:35.822Z,17.44
2018-07-22T08:16:35.880Z,17.49
2018-07-22T08:17:35.821Z,17.46
2018-07-22T08:18:35.835Z,17.43
2018-07-22T08:19:36.524Z,17.5
2018-07-22T08:20:35.847Z,17.52
2018-07-22T08:21:36.568Z,17.5
2018-07-22T08:22:35.806Z,17.52
2018-07-22T08:23:35.813Z,17.57
2018-07-22T08:24:35.854Z,17.65
2018-07-22T08:25:35.811Z,17.52
2018-07-22T08:26:35.997Z,17.45
2018-07-22T08:27:35.850Z,17.44
2018-07-22T08:28:35.836Z,17.51
2018-07-22T08:29:35.829Z,17.46
2018-07-22T08:30:36.200Z,17.5
2018-07-22T08:31:35.939Z,17.55
2018-07-22T08:32:35.845Z,17.45
2018-07-22T08:33:35.840Z,17.33
2018-07-22T08:34:35.875Z,17.5
2018-07-22T08:35:35.879Z,17.25
2018-07-22T08:36:38.797Z,17.53
2018-07-22T08:37:36.692Z,17.6
2018-07-22T08:38:36.008Z,17.65
2018-07-22T08:39:35.941Z,17.56
2018-07-22T08:40:35.867Z,17.57
2018-07-22T08:41:36.404Z,17.33
2018-07-22T08:42:36.004Z,17.48
2018-07-22T08:43:35.900Z,17.38
2018-07-22T08:44:35.941Z,17.36
2018-07-22T08:45:35.881Z,17.34
2018-07-22T08:46:35.893Z,17.38
2018-07-22T08:47:36.343Z,17.32
2018-07-22T08:48:35.842Z,17.42
2018-07-22T08:49:35.869Z,17.43
2018-07-22T08:50:36.021Z,17.43
2018-07-22T08:51:36.132Z,17.38
2018-07-22T08:52:36.035Z,17.46
2018-07-22T08:53:35.838Z,17.4
2018-07-22T08:54:35.879Z,17.4
2018-07-22T08:55:35.900Z,17.36
2018-07-22T08:56:35.877Z,17.36
2018-07-22T08:57:35.928Z,17.42
2018-07-22T08:58:35.873Z,17.36
2018-07-22T08:59:36.189Z,17.35
2018-07-22T09:00:35.919Z,17.41
2018-07-22T09:01:35.921Z,17.55
2018-07-22T09:02:36.701Z,17.46
2018-07-22T09:03:35.907Z,17.38
2018-07-22T09:04:35.883Z,17.44
2018-07-22T09:05:36.688Z,17.46
2018-07-22T09:06:35.881Z,17.32
2018-07-22T09:07:35.865Z,17.46
2018-07-22T09:08:35.936Z,17.36
2018-07-22T09:09:35.852Z,17.4
2018-07-22T09:10:36.097Z,17.51
2018-07-22T09:11:36.216Z,17.45
2018-07-22T09:12:35.891Z,17.61
2018-07-22T09:13:35.891Z,17.35
2018-07-22T09:14:35.899Z,17.48
2018-07-22T09:15:35.949Z,17.41
2018-07-22T09:16:35.904Z,17.29
2018-07-22T09:17:36.059Z,17.32
2018-07-22T09:18:35.848Z,17.32
2018-07-22T09:19:35.892Z,17.14
2018-07-22T09:20:35.909Z,17.16
2018-07-22T09:21:35.927Z,17.28
2018-07-22T09:22:35.991Z,17.32
2018-07-22T09:23:35.920Z,17.46
2018-07-22T09:24:35.875Z,17.54
2018-07-22T09:25:35.889Z,17.39
2018-07-22T09:26:36.039Z,17.37
2018-07-22T09:27:36.012Z,17.43
2018-07-22T09:28:35.882Z,17.47
2018-07-22T09:29:35.854Z,17.6
2018-07-22T09:30:36.055Z,17.59
2018-07-22T09:31:35.878Z,17.5
2018-07-22T09:32:36.213Z,17.14
2018-07-22T09:33:35.886Z,17.18
2018-07-22T09:34:36.254Z,17.33
2018-07-22T09:35:35.854Z,17.28
2018-07-22T09:36:36.650Z,17.36
2018-07-22T09:37:36.037Z,17.3
2018-07-22T09:38:36.113Z,17.24
2018-07-22T09:39:35.896Z,17.27
2018-07-22T09:40:36.081Z,17.39
2018-07-22T09:41:35.878Z,17.14
2018-07-22T09:42:36.044Z,17.26
2018-07-22T09:43:35.933Z,17.27
2018-07-22T09:44:36.026Z,17.27
2018-07-22T09:45:35.991Z,17.36
2018-07-22T09:46:36.003Z,17.27
2018-07-22T09:47:36.063Z,17.28
2018-07-22T09:48:36.072Z,17.42
2018-07-22T09:49:35.966Z,17.45
2018-07-22T09:50:36.001Z,17.5
2018-07-22T09:51:35.884Z,17.49
2018-07-22T09:52:36.034Z,17.37
2018-07-22T09:53:36.194Z,17.5
2018-07-22T09:54:35.938Z,17.41
2018-07-22T09:55:35.987Z,17.29
2018-07-22T09:56:36.245Z,17.29
2018-07-22T09:57:36.105Z,17.23
2018-07-22T09:58:36.558Z,17.34
2018-07-22T09:59:35.993Z,17.33
2018-07-22T10:00:36.099Z,17.35
2018-07-22T10:01:36.107Z,17.34
2018-07-22T10:02:36.101Z,17.28
2018-07-22T10:03:36.142Z,17.31
2018-07-22T10:04:36.539Z,17.37
2018-07-22T10:05:36.168Z,17.5
2018-07-22T10:06:39.714Z,17.36
2018-07-22T10:07:37.184Z,17.37
2018-07-22T10:08:36.043Z,17.45
2018-07-22T10:09:36.179Z,17.54
2018-07-22T10:10:36.177Z,17.42
2018-07-22T10:11:37.291Z,17.39
2018-07-22T10:12:36.255Z,17.52
2018-07-22T10:13:36.170Z,17.55
2018-07-22T10:14:36.708Z,17.7
2018-07-22T10:15:35.891Z,17.74
2018-07-22T10:16:35.900Z,17.8
2018-07-22T10:17:36.219Z,17.68
2018-07-22T10:18:35.930Z,17.61
2018-07-22T10:19:36.015Z,17.61
2018-07-22T10:20:36.136Z,17.49
2018-07-22T10:21:35.954Z,17.44
2018-07-22T10:22:35.879Z,17.19
2018-07-22T10:23:35.980Z,17.25
2018-07-22T10:24:35.925Z,17.29
2018-07-22T10:25:35.931Z,17.55
2018-07-22T10:26:35.952Z,17.54
2018-07-22T10:27:35.903Z,17.4
2018-07-22T10:28:36.231Z,17.75
2018-07-22T10:29:35.968Z,17.57
2018-07-22T10:30:35.940Z,17.58
2018-07-22T10:31:35.934Z,17.64
2018-07-22T10:32:36.027Z,17.63
2018-07-22T10:33:35.992Z,17.67
2018-07-22T10:34:36.136Z,17.58
2018-07-22T10:35:36.048Z,17.47
2018-07-22T10:36:36.181Z,17.55
2018-07-22T10:37:35.954Z,17.34
2018-07-22T10:38:35.985Z,17.55
2018-07-22T10:39:35.987Z,17.46
2018-07-22T10:40:36.080Z,17.52
2018-07-22T10:41:36.001Z,17.37
2018-07-22T10:42:36.729Z,17.48
2018-07-22T10:43:35.949Z,17.44
2018-07-22T10:44:36.020Z,17.57
2018-07-22T10:45:35.923Z,17.7
2018-07-22T10:46:36.062Z,17.38
2018-07-22T10:47:36.063Z,17.67
2018-07-22T10:48:35.992Z,17.44
2018-07-22T10:49:36.111Z,17.56
2018-07-22T10:50:36.177Z,17.79
2018-07-22T10:51:36.056Z,17.51
2018-07-22T10:52:36.054Z,17.58
2018-07-22T10:53:35.916Z,17.43
2018-07-22T10:54:36.069Z,17.45
2018-07-22T10:55:36.074Z,17.75
2018-07-22T10:56:36.078Z,17.6
2018-07-22T10:57:36.191Z,17.5
2018-07-22T10:58:35.996Z,17.77
2018-07-22T10:59:35.987Z,17.56
2018-07-22T11:00:36.093Z,17.71
2018-07-22T11:01:36.039Z,17.66
2018-07-22T11:02:36.160Z,17.66
2018-07-22T11:03:36.167Z,17.71
2018-07-22T11:04:36.064Z,17.68
2018-07-22T11:05:36.026Z,17.69
2018-07-22T11:06:36.073Z,17.36
2018-07-22T11:07:36.097Z,17.5
2018-07-22T11:08:35.998Z,17.43
2018-07-22T11:09:36.009Z,17.31
2018-07-22T11:10:36.007Z,17.4
2018-07-22T11:11:36.258Z,17.47
2018-07-22T11:12:36.087Z,17.68
2018-07-22T11:13:36.017Z,17.58
2018-07-22T11:14:36.422Z,17.48
2018-07-22T11:15:36.043Z,17.7
2018-07-22T11:16:36.800Z,17.56
2018-07-22T11:17:35.983Z,17.77
2018-07-22T11:18:36.237Z,17.87
2018-07-22T11:19:36.169Z,17.81
2018-07-22T11:20:36.250Z,17.66
2018-07-22T11:21:36.100Z,17.68
2018-07-22T11:22:36.097Z,17.41
2018-07-22T11:23:36.727Z,17.39
2018-07-22T11:24:36.016Z,17.29
2018-07-22T11:25:36.729Z,16.93
2018-07-22T11:26:36.117Z,17.09
2018-07-22T11:27:36.133Z,17.36
2018-07-22T11:28:39.575Z,17.41
2018-07-22T11:29:35.983Z,17.45
2018-07-22T11:30:36.069Z,17.17
2018-07-22T11:31:36.123Z,17.32
2018-07-22T11:32:36.028Z,17.26
2018-07-22T11:33:37.118Z,17.45
2018-07-22T11:34:36.023Z,17.53
2018-07-22T11:35:36.112Z,17.48
2018-07-22T11:36:35.996Z,17.22
2018-07-22T11:37:35.959Z,17.49
2018-07-22T11:38:36.752Z,17.45
2018-07-22T11:39:35.965Z,17.39
2018-07-22T11:40:35.982Z,17.21
2018-07-22T11:41:36.091Z,17.49
2018-07-22T11:42:36.094Z,17.31
2018-07-22T11:43:36.080Z,17.3
2018-07-22T11:44:36.031Z,17
2018-07-22T11:45:35.974Z,17.4
2018-07-22T11:46:35.989Z,17.6
2018-07-22T11:47:36.054Z,17.61
2018-07-22T11:48:36.009Z,17.42
2018-07-22T11:49:36.363Z,17.33
2018-07-22T11:50:36.334Z,17.15
2018-07-22T11:51:36.142Z,17.25
2018-07-22T11:52:36.081Z,17.26
2018-07-22T11:53:35.974Z,17.08
2018-07-22T11:54:36.033Z,17.08
2018-07-22T11:55:36.157Z,16.92
2018-07-22T11:56:36.103Z,17.15
2018-07-22T11:57:36.099Z,17.2
2018-07-22T11:58:36.258Z,17.28
2018-07-22T11:59:35.975Z,17.52
2018-07-22T12:00:35.985Z,17.36
2018-07-22T12:01:36.106Z,17.37
2018-07-22T12:02:36.400Z,17.15
2018-07-22T12:03:36.027Z,17.1
2018-07-22T12:04:36.178Z,16.97
2018-07-22T12:05:36.031Z,17.07
2018-07-22T12:06:36.021Z,17.15
2018-07-22T12:07:36.257Z,17.31
2018-07-22T12:08:36.248Z,17.3
2018-07-22T12:09:36.213Z,17.12
2018-07-22T12:10:36.093Z,17
2018-07-22T12:11:36.039Z,17.14
2018-07-22T12:12:36.580Z,17.41
2018-07-22T12:13:36.132Z,17.35
2018-07-22T12:14:35.991Z,17.44
2018-07-22T12:15:36.191Z,17.41
2018-07-22T12:16:36.932Z,17.38
2018-07-22T12:17:36.197Z,17.7
2018-07-22T12:18:36.008Z,17.47
2018-07-22T12:19:36.052Z,17.6
2018-07-22T12:20:36.020Z,17.44
2018-07-22T12:21:36.107Z,17.46
2018-07-22T12:22:36.035Z,17.53
2018-07-22T12:23:36.388Z,17.47
2018-07-22T12:24:36.021Z,17.52
2018-07-22T12:25:36.102Z,17.39
2018-07-22T12:26:36.093Z,17.48
2018-07-22T12:27:36.786Z,17.38
2018-07-22T12:28:36.057Z,17.25
2018-07-22T12:29:36.157Z,17.4
2018-07-22T12:30:36.724Z,17.21
2018-07-22T12:31:36.111Z,17.17
2018-07-22T12:32:36.041Z,17.17
2018-07-22T12:33:36.046Z,17.22
2018-07-22T12:34:36.096Z,17.32
2018-07-22T12:35:36.190Z,17.2
2018-07-22T12:36:36.220Z,17.32
2018-07-22T12:37:36.093Z,17.26
2018-07-22T12:38:36.061Z,17.09
2018-07-22T12:39:36.018Z,16.97
2018-07-22T12:40:36.775Z,16.96
2018-07-22T12:41:36.044Z,16.97
2018-07-22T12:42:36.034Z,16.97
2018-07-22T12:43:36.111Z,17.13
2018-07-22T12:44:36.238Z,17.29
2018-07-22T12:45:36.143Z,17.59
2018-07-22T12:46:36.932Z,17.96
2018-07-22T12:47:37.232Z,18.13
2018-07-22T12:48:36.052Z,18.49
2018-07-22T12:49:36.154Z,18.94
2018-07-22T12:50:36.071Z,18.97
2018-07-22T12:51:36.005Z,18.81
2018-07-22T12:52:36.067Z,19.1
2018-07-22T12:53:36.191Z,18.88
2018-07-22T12:54:37.639Z,19.05
2018-07-22T12:55:36.039Z,19.4